Time;durP1;ratioP1;P1;durP2;ratioP2;P2;SDS_P1;SDS_P2;PMS_P1;PMS_P2;Temp;Humidity;BMP_temperature;BMP_pressure;BME280_temperature;BME280_humidity;BME280_pressure;Samples;Min_cycle;Max_cycle;Signal;HPM_P1;HPM_P2
2022/04/15 00:01:26;;;;;;;10.88;6.03;;;;;;;11.52;68.62;98953.78;5132152;28;20039;-93
2022/04/15 00:03:52;;;;;;;12.88;6.38;;;;;;;11.52;68.91;98967.13;5132468;28;20520;-94
2022/04/15 00:06:20;;;;;;;15.40;7.55;;;;;;;11.40;69.77;98948.81;5132056;28;20051;-92
2022/04/15 00:08:47;;;;;;;15.50;8.18;;;;;;;11.12;71.67;98956.66;5132159;28;20047;-92
2022/04/15 00:11:13;;;;;;;10.35;6.57;;;;;;;10.96;71.50;98941.09;5132447;28;20035;-94
2022/04/15 00:13:41;;;;;;;95.50;23.42;;;;;;;10.88;70.94;98935.94;5132022;28;20054;-91
2022/04/15 00:16:09;;;;;;;32.13;11.25;;;;;;;10.71;71.85;98945.28;5132036;28;20087;-90
2022/04/15 00:18:37;;;;;;;14.82;6.88;;;;;;;10.68;71.16;98933.81;5132177;28;20051;-94
2022/04/15 00:21:03;;;;;;;50.40;16.63;;;;;;;10.73;71.65;98935.47;5131784;28;20043;-92
2022/04/15 00:23:30;;;;;;;65.95;25.40;;;;;;;10.65;72.21;98933.03;5131961;28;20046;-94
2022/04/15 00:25:57;;;;;;;61.35;21.83;;;;;;;10.65;72.36;98933.03;5131673;28;20043;-91
2022/04/15 00:28:24;;;;;;;14.48;7.38;;;;;;;10.61;72.41;98924.25;5131694;28;20043;-94
2022/04/15 00:30:50;;;;;;;14.35;7.05;;;;;;;10.61;72.28;98920.72;5131753;28;20040;-95
2022/04/15 00:33:17;;;;;;;17.10;9.48;;;;;;;10.55;72.31;98926.19;5131757;28;20381;-94
2022/04/15 00:35:43;;;;;;;52.65;21.63;;;;;;;10.58;71.85;98918.09;5131766;28;20039;-94
2022/04/15 00:38:09;;;;;;;23.23;10.77;;;;;;;10.75;70.70;98917.69;5131732;28;20092;-94
2022/04/15 00:40:34;;;;;;;29.02;14.60;;;;;;;10.82;71.91;98936.13;5131208;28;20035;-94
2022/04/15 00:43:02;;;;;;;22.92;11.32;;;;;;;10.83;72.35;98950.31;5131493;28;20049;-93
2022/04/15 00:45:28;;;;;;;15.00;7.60;;;;;;;10.73;72.74;98925.69;5131234;28;20036;-93
2022/04/15 00:47:55;;;;;;;8.70;6.10;;;;;;;11.07;69.57;98930.16;5131695;28;20442;-93
2022/04/15 00:50:23;;;;;;;9.10;5.68;;;;;;;11.09;69.41;98926.53;5131738;28;20043;-93
2022/04/15 00:52:50;;;;;;;12.43;6.40;;;;;;;11.24;69.21;98933.25;5120339;28;20127;-94
2022/04/15 00:55:18;;;;;;;9.00;5.30;;;;;;;11.24;68.79;98935.03;5117454;28;20104;-94
2022/04/15 00:57:49;;;;;;;8.88;5.40;;;;;;;11.15;69.02;98924.66;5117452;28;20071;-93
2022/04/15 01:00:16;;;;;;;11.55;6.18;;;;;;;11.22;70.00;98945.72;5117233;28;20032;-93
2022/04/15 01:02:43;;;;;;;11.63;6.10;;;;;;;11.07;71.40;98941.69;5117396;28;20055;-93
2022/04/15 01:05:10;;;;;;;12.45;6.45;;;;;;;10.81;71.54;98934.38;5117307;28;20123;-94
2022/04/15 01:07:39;;;;;;;11.68;6.32;;;;;;;10.75;69.98;98923.88;5117332;28;20505;-94
2022/04/15 01:10:08;;;;;;;9.55;5.93;;;;;;;10.74;70.45;98923.94;5117438;28;20126;-94
2022/04/15 01:12:36;;;;;;;13.27;5.95;;;;;;;10.68;71.00;98932.94;5117220;28;20409;-93
2022/04/15 01:15:05;;;;;;;8.98;5.20;;;;;;;10.59;71.68;98923.41;5117066;28;20035;-94
2022/04/15 01:17:34;;;;;;;8.30;5.13;;;;;;;10.59;71.76;98938.50;5117257;28;20044;-92
2022/04/15 01:19:59;;;;;;;8.35;5.18;;;;;;;10.56;71.39;98927.91;5116727;28;20050;-92
2022/04/15 01:22:31;;;;;;;7.88;5.10;;;;;;;10.62;70.86;98935.75;5116926;28;20148;-93
2022/04/15 01:24:58;;;;;;;8.63;5.15;;;;;;;10.94;69.24;98936.72;5117461;28;20100;-93
2022/04/15 01:27:27;;;;;;;8.73;4.80;;;;;;;11.04;68.38;98924.94;5116944;28;20031;-93
2022/04/15 01:29:52;;;;;;;8.00;4.55;;;;;;;11.18;67.54;98930.75;5117183;28;20487;-93
2022/04/15 01:32:18;;;;;;;8.60;5.05;;;;;;;11.26;66.89;98917.25;5117141;28;20040;-94
2022/04/15 01:34:45;;;;;;;8.20;5.15;;;;;;;11.26;66.93;98918.09;5116990;28;20042;-93
2022/04/15 01:37:14;;;;;;;7.93;5.55;;;;;;;11.31;67.22;98928.63;5127781;27;20039;-94
2022/04/15 01:39:40;;;;;;;7.75;5.30;;;;;;;11.40;66.83;98927.50;5131411;27;20044;-93
2022/04/15 01:42:10;;;;;;;7.68;5.15;;;;;;;11.30;66.96;98922.44;5117337;28;20043;-92
2022/04/15 01:44:37;;;;;;;11.57;5.30;;;;;;;11.24;67.11;98917.28;5117640;28;20432;-93
2022/04/15 01:47:03;;;;;;;6.93;4.95;;;;;;;11.25;67.46;98932.31;5116333;28;20069;-94
2022/04/15 01:49:29;;;;;;;7.22;5.18;;;;;;;11.10;67.82;98920.31;5116602;28;20154;-93
2022/04/15 01:51:54;;;;;;;9.68;4.70;;;;;;;10.95;68.62;98914.50;5116458;28;20540;-94
2022/04/15 01:54:20;;;;;;;8.25;4.88;;;;;;;10.83;69.43;98910.41;5116488;28;20506;-94
2022/04/15 01:56:46;;;;;;;8.93;5.30;;;;;;;10.74;70.17;98922.16;5116336;28;20047;-94
2022/04/15 01:59:13;;;;;;;7.63;5.30;;;;;;;10.47;71.35;98905.97;5116378;28;20123;-93
2022/04/15 02:01:39;;;;;;;10.32;5.03;;;;;;;10.42;72.31;98920.28;5116099;28;20043;-93
2022/04/15 02:04:05;;;;;;;9.60;6.15;;;;;;;10.27;73.57;98919.69;5115513;28;20126;-93
2022/04/15 02:06:31;;;;;;;8.65;5.35;;;;;;;10.04;74.07;98898.09;5116165;28;20043;-94
2022/04/15 02:08:57;;;;;;;13.38;6.43;;;;;;;9.98;75.65;98914.19;5116148;28;20050;-94
2022/04/15 02:11:23;;;;;;;11.20;5.93;;;;;;;9.91;76.88;98918.75;5116602;28;20024;-94
2022/04/15 02:13:49;;;;;;;8.82;5.57;;;;;;;9.91;76.98;98931.16;5116056;28;20092;-93
2022/04/15 02:16:16;;;;;;;8.40;5.63;;;;;;;9.66;77.31;98905.13;5115973;28;20089;-93
2022/04/15 02:18:42;;;;;;;12.98;5.40;;;;;;;9.57;78.40;98914.16;5115905;28;20096;-93
2022/04/15 02:21:08;;;;;;;10.43;5.72;;;;;;;9.41;79.44;98899.44;5116000;28;20031;-94
2022/04/15 02:23:33;;;;;;;9.63;5.47;;;;;;;9.55;79.43;98917.75;5115703;28;20049;-93
2022/04/15 02:25:59;;;;;;;10.50;5.63;;;;;;;9.40;79.80;98903.00;5115736;28;20067;-94
2022/04/15 02:28:25;;;;;;;8.35;5.70;;;;;;;9.43;79.93;98918.88;5115913;28;20035;-93
2022/04/15 02:30:52;;;;;;;8.20;5.35;;;;;;;9.32;80.20;98902.28;5115551;28;20043;-93
2022/04/15 02:33:20;;;;;;;9.00;5.47;;;;;;;9.30;79.09;98898.78;5115564;28;20040;-93
2022/04/15 02:35:46;;;;;;;9.75;5.65;;;;;;;9.41;78.85;98902.09;5115564;28;20443;-94
2022/04/15 02:38:12;;;;;;;10.00;5.05;;;;;;;9.61;77.16;98917.63;5115554;28;20035;-94
2022/04/15 02:40:40;;;;;;;9.88;4.95;;;;;;;9.72;76.27;98918.28;5115332;28;20404;-93
2022/04/15 02:43:06;;;;;;;7.53;5.18;;;;;;;9.85;74.62;98905.63;5115530;28;20493;-94
2022/04/15 02:45:32;;;;;;;7.53;4.97;;;;;;;9.97;74.23;98907.97;5115483;28;20088;-93
2022/04/15 02:47:59;;;;;;;7.30;5.18;;;;;;;10.01;74.10;98903.47;5115413;28;20032;-93
2022/04/15 02:50:27;;;;;;;7.32;4.68;;;;;;;9.99;73.75;98906.16;5115508;28;20115;-93
2022/04/15 02:52:53;;;;;;;8.47;4.97;;;;;;;9.85;73.98;98882.56;5115222;28;20036;-92
2022/04/15 02:55:19;;;;;;;7.63;4.72;;;;;;;9.93;73.51;98898.34;5115377;28;20558;-92
2022/04/15 02:57:45;;;;;;;7.80;5.10;;;;;;;9.94;73.50;98892.13;5115327;28;20054;-92
2022/04/15 03:00:15;;;;;;;8.82;5.28;;;;;;;9.90;73.71;98879.81;5115677;28;20464;-93
2022/04/15 03:02:40;;;;;;;;;;;;;;;10.09;73.79;98914.81;5115520;28;20070;-92
2022/04/15 03:05:09;;;;;;;7.10;4.88;;;;;;;10.00;73.87;98913.25;5115177;28;19919;-93
2022/04/15 03:07:36;;;;;;;6.88;4.47;;;;;;;9.94;73.52;98893.91;5115343;28;20409;-92
2022/04/15 03:10:02;;;;;;;8.90;5.07;;;;;;;10.02;73.07;98910.56;5115314;28;20035;-93
2022/04/15 03:12:28;;;;;;;9.75;5.10;;;;;;;9.96;74.23;98916.88;5115027;28;20078;-93
2022/04/15 03:14:55;;;;;;;9.07;5.05;;;;;;;9.79;75.55;98913.72;5114639;28;20373;-92
2022/04/15 03:17:21;;;;;;;8.50;5.25;;;;;;;9.59;76.73;98904.38;5115292;28;20081;-93
2022/04/15 03:19:46;;;;;;;9.10;5.32;;;;;;;9.51;77.72;98916.94;5114758;28;20051;-93
2022/04/15 03:22:12;;;;;;;9.02;5.15;;;;;;;9.43;78.17;98918.88;5115119;28;20152;-94
2022/04/15 03:24:39;;;;;;;7.75;5.57;;;;;;;9.29;79.09;98927.09;5114495;28;20374;-93
2022/04/15 03:27:05;;;;;;;9.35;5.25;;;;;;;9.02;80.04;98904.63;5114753;28;20032;-92
2022/04/15 03:29:31;;;;;;;10.80;5.45;;;;;;;9.03;81.08;98928.47;5114745;28;20043;-92
2022/04/15 03:31:56;;;;;;;10.15;5.53;;;;;;;8.85;81.51;98904.94;5114734;28;20046;-92
2022/04/15 03:34:22;;;;;;;7.93;4.95;;;;;;;8.90;81.82;98926.06;5114835;28;20043;-92
2022/04/15 03:36:48;;;;;;;8.77;5.30;;;;;;;8.83;82.20;98928.84;5114611;28;20039;-92
2022/04/15 03:39:14;;;;;;;7.20;5.05;;;;;;;8.69;82.90;98924.66;5114600;28;20508;-93
2022/04/15 03:41:41;;;;;;;8.30;5.22;;;;;;;8.52;83.62;98914.34;5114425;28;20109;-93
2022/04/15 03:44:07;;;;;;;8.57;5.43;;;;;;;8.49;84.49;98920.56;5114669;28;20071;-93
2022/04/15 03:46:34;;;;;;;8.23;4.88;;;;;;;8.62;83.62;98938.00;5114385;28;20071;-92
2022/04/15 03:49:00;;;;;;;6.53;4.57;;;;;;;8.42;83.22;98911.84;5114526;28;20044;-94
2022/04/15 03:51:26;;;;;;;8.32;5.45;;;;;;;8.46;84.20;98927.69;5114791;28;20434;-93
2022/04/15 03:53:51;;;;;;;9.23;5.38;;;;;;;8.45;84.39;98936.53;5114499;28;20154;-92
2022/04/15 03:56:17;;;;;;;8.07;5.20;;;;;;;8.36;84.97;98924.28;5114392;28;20035;-92
2022/04/15 03:58:44;;;;;;;10.20;5.88;;;;;;;8.46;84.74;98954.19;5114484;28;20489;-93
2022/04/15 04:01:10;;;;;;;9.10;6.30;;;;;;;8.38;85.25;98947.19;5114289;28;20043;-92
2022/04/15 04:03:36;;;;;;;9.20;4.85;;;;;;;8.29;83.64;98920.00;5114294;28;20036;-91
2022/04/15 04:06:02;;;;;;;8.93;5.50;;;;;;;8.35;84.45;98947.25;5114250;28;20138;-92
2022/04/15 04:08:28;;;;;;;10.50;5.43;;;;;;;8.42;83.50;98948.06;5114299;28;20067;-93
2022/04/15 04:10:54;;;;;;;8.15;5.03;;;;;;;8.45;82.99;98944.50;5114793;28;20039;-93
2022/04/15 04:13:20;;;;;;;7.57;5.07;;;;;;;8.53;82.20;98934.66;5114853;28;20099;-91
2022/04/15 04:15:47;;;;;;;8.40;5.78;;;;;;;8.63;81.75;98928.28;5114435;28;20075;-91
2022/04/15 04:18:14;;;;;;;9.10;5.60;;;;;;;8.66;81.90;98936.19;5114536;28;20085;-92
2022/04/15 04:20:40;;;;;;;7.47;5.00;;;;;;;8.74;82.06;98950.22;5114975;28;20046;-91
2022/04/15 04:23:06;;;;;;;8.15;5.65;;;;;;;8.64;82.31;98940.66;5114671;28;20042;-92
2022/04/15 04:25:32;;;;;;;9.52;5.47;;;;;;;8.74;82.41;98960.81;5114757;28;20479;-92
2022/04/15 04:27:58;;;;;;;7.30;5.10;;;;;;;8.79;81.92;98961.59;5116971;28;20042;-93
2022/04/15 04:30:24;;;;;;;7.60;5.30;;;;;;;8.69;81.97;98944.09;5118226;28;20040;-92
2022/04/15 04:32:52;;;;;;;9.43;5.47;;;;;;;8.59;82.56;98943.38;5119442;28;20069;-91
2022/04/15 04:35:19;;;;;;;7.03;5.20;;;;;;;8.69;82.60;98964.44;5118675;28;20047;-92
2022/04/15 04:37:45;;;;;;;9.10;5.20;;;;;;;8.70;82.33;98961.75;5117977;28;20047;-91
2022/04/15 04:40:13;;;;;;;7.22;5.10;;;;;;;8.56;82.70;98950.50;5117756;28;20493;-92
2022/04/15 04:42:39;;;;;;;8.35;5.25;;;;;;;8.67;82.98;98959.16;5117813;28;20058;-93
2022/04/15 04:45:05;;;;;;;6.93;5.10;;;;;;;8.61;82.81;98949.53;5117787;28;20082;-92
2022/04/15 04:47:32;;;;;;;7.05;4.60;;;;;;;8.50;82.92;98954.13;5117648;28;20044;-94
2022/04/15 04:50:01;;;;;;;7.15;4.90;;;;;;;8.49;83.53;98962.97;5118024;28;20054;-92
2022/04/15 04:52:27;;;;;;;9.35;5.18;;;;;;;8.38;84.54;98959.59;5117892;28;20416;-94
2022/04/15 04:54:53;;;;;;;9.48;4.70;;;;;;;8.43;84.60;98968.34;5117789;28;20497;-93
2022/04/15 04:57:19;;;;;;;8.27;5.28;;;;;;;8.36;85.33;98956.09;5117615;28;20045;-93
2022/04/15 04:59:44;;;;;;;8.38;5.45;;;;;;;8.48;85.49;98970.94;5117592;28;20043;-92
2022/04/15 05:02:12;;;;;;;10.63;5.00;;;;;;;8.54;84.31;98977.00;5117795;28;20130;-94
2022/04/15 05:04:38;;;;;;;7.55;5.30;;;;;;;8.51;84.34;98955.88;5117443;28;20075;-92
2022/04/15 05:07:07;;;;;;;7.85;4.70;;;;;;;8.70;83.72;98976.81;5117695;28;20044;-93
2022/04/15 05:09:32;;;;;;;8.13;5.00;;;;;;;8.73;83.47;98969.66;5117241;28;20036;-92
2022/04/15 05:11:58;;;;;;;8.38;5.10;;;;;;;8.79;83.16;98969.56;5117648;28;20308;-93
2022/04/15 05:14:24;;;;;;;7.70;5.10;;;;;;;8.87;83.15;98965.88;5117232;28;20090;-92
2022/04/15 05:16:50;;;;;;;7.10;5.15;;;;;;;9.04;80.87;98969.13;5117206;28;20053;-93
2022/04/15 05:19:16;;;;;;;9.57;5.85;;;;;;;9.14;79.54;98965.41;5117464;28;20130;-92
2022/04/15 05:21:41;;;;;;;6.28;4.95;;;;;;;9.14;79.78;98956.59;5117158;28;20048;-92
2022/04/15 05:24:09;;;;;;;8.77;5.22;;;;;;;9.40;79.04;98998.56;5117016;28;20046;-93
2022/04/15 05:26:35;;;;;;;8.70;5.63;;;;;;;9.36;79.09;98968.53;5117008;28;20397;-92
2022/04/15 05:29:01;;;;;;;8.30;5.50;;;;;;;9.46;77.57;98951.53;5116978;28;20051;-93
2022/04/15 05:31:27;;;;;;;8.32;5.20;;;;;;;9.77;76.98;98976.59;5116956;28;20130;-93
2022/04/15 05:33:53;;;;;;;10.60;5.38;;;;;;;9.78;76.98;98965.06;5116857;28;20075;-93
2022/04/15 05:36:19;;;;;;;7.60;4.97;;;;;;;10.01;76.47;98978.72;5116814;28;20400;-93
2022/04/15 05:38:44;;;;;;;9.63;5.68;;;;;;;10.14;75.29;98979.34;5116755;28;20132;-94
2022/04/15 05:41:11;;;;;;;7.45;5.13;;;;;;;10.15;75.31;98972.25;5116375;28;20143;-92
2022/04/15 05:43:37;;;;;;;7.47;5.53;;;;;;;10.13;75.67;98966.09;5116992;28;20042;-93
2022/04/15 05:46:03;;;;;;;8.48;5.55;;;;;;;10.34;75.45;98976.25;5116926;28;20047;-92
2022/04/15 05:48:29;;;;;;;10.43;5.75;;;;;;;10.38;75.48;98967.31;5116587;28;20058;-92
2022/04/15 05:50:55;;;;;;;7.93;5.53;;;;;;;10.59;74.34;98975.72;5116526;28;20084;-92
2022/04/15 05:53:21;;;;;;;7.63;5.63;;;;;;;10.80;73.31;98984.94;5116399;28;20044;-94
2022/04/15 05:55:47;;;;;;;8.63;5.57;;;;;;;10.96;72.44;98977.47;5116619;28;20058;-94
2022/04/15 05:58:14;;;;;;;9.18;5.68;;;;;;;11.24;71.44;98993.59;5116379;28;20052;-92
2022/04/15 06:00:40;;;;;;;10.00;5.90;;;;;;;11.34;71.07;98997.75;5116332;28;20043;-92
2022/04/15 06:03:07;;;;;;;10.18;6.63;;;;;;;11.37;70.77;99004.81;5116204;28;20066;-93
2022/04/15 06:05:33;;;;;;;9.38;5.95;;;;;;;11.38;70.24;98998.56;5116219;28;20042;-94
2022/04/15 06:07:58;;;;;;;8.95;5.40;;;;;;;11.45;70.20;99005.47;5116132;28;20044;-92
2022/04/15 06:10:24;;;;;;;9.27;5.53;;;;;;;11.47;70.15;98999.19;5116293;28;20370;-92
2022/04/15 06:13:00;;;;;;;8.93;5.20;;;;;;;11.68;70.01;99012.81;5116054;28;20050;-93
2022/04/15 06:15:30;;;;;;;11.18;6.25;;;;;;;11.57;70.28;98999.81;5116054;28;20053;-93
2022/04/15 06:17:56;;;;;;;10.98;5.93;;;;;;;11.68;69.55;99012.81;5116165;28;20036;-93
2022/04/15 06:20:22;;;;;;;11.73;6.45;;;;;;;11.61;70.09;98995.28;5115884;28;20389;-93
2022/04/15 06:22:48;;;;;;;14.15;7.40;;;;;;;11.70;70.53;99019.84;5115906;28;20039;-93
2022/04/15 06:25:15;;;;;;;18.85;7.90;;;;;;;11.61;71.10;99017.44;5115811;28;20050;-92
2022/04/15 06:27:41;;;;;;;16.15;7.28;;;;;;;11.47;70.71;99011.63;5115721;28;20044;-93
2022/04/15 06:30:08;;;;;;;13.30;8.38;;;;;;;11.58;72.04;99027.31;5115699;28;20100;-93
2022/04/15 06:32:35;;;;;;;13.45;7.53;;;;;;;11.79;70.07;99020.53;5115817;28;20035;-93
2022/04/15 06:35:01;;;;;;;10.32;6.32;;;;;;;12.07;69.44;99025.97;5115568;28;20048;-93
2022/04/15 06:37:27;;;;;;;14.80;6.88;;;;;;;12.25;68.53;99008.56;5115582;28;20085;-92
2022/04/15 06:39:53;;;;;;;10.20;6.55;;;;;;;12.47;66.64;99014.09;5115134;28;20051;-93
2022/04/15 06:42:21;;;;;;;9.32;5.63;;;;;;;12.73;66.56;99032.88;5115399;28;20032;-93
2022/04/15 06:44:47;;;;;;;7.60;6.23;;;;;;;12.88;65.17;99028.84;5115735;28;20038;-92
2022/04/15 06:47:13;;;;;;;9.70;5.95;;;;;;;12.97;64.66;99025.00;5115765;28;20127;-93
2022/04/15 06:49:40;;;;;;;8.32;5.18;;;;;;;13.16;63.79;99025.22;5115388;28;20126;-92
2022/04/15 06:52:07;;;;;;;8.93;5.75;;;;;;;13.33;63.19;99030.03;5115341;28;20044;-94
2022/04/15 06:54:33;;;;;;;9.57;5.68;;;;;;;13.39;61.92;99024.50;5115346;28;20089;-93
2022/04/15 06:56:58;;;;;;;6.43;5.20;;;;;;;13.52;59.83;99033.81;5115490;28;20075;-91
2022/04/15 06:59:24;;;;;;;8.68;5.38;;;;;;;13.37;61.51;99028.16;5115603;28;20058;-93
2022/04/15 07:01:50;;;;;;;8.63;5.60;;;;;;;13.45;59.92;99020.75;5115122;28;20042;-93
2022/04/15 07:04:16;;;;;;;7.65;5.18;;;;;;;13.73;60.04;99028.66;5115482;28;20047;-93
2022/04/15 07:06:43;;;;;;;7.05;5.13;;;;;;;13.71;60.17;99020.69;5115317;28;20408;-93
2022/04/15 07:09:09;;;;;;;7.85;5.40;;;;;;;13.63;59.14;99016.56;5115046;28;20488;-92
2022/04/15 07:11:35;;;;;;;7.63;5.53;;;;;;;13.74;59.76;99033.94;5114997;28;20038;-91
2022/04/15 07:14:00;;;;;;;7.55;5.32;;;;;;;13.69;58.40;99022.56;5115040;28;20053;-91
2022/04/15 07:16:26;;;;;;;7.97;5.40;;;;;;;13.67;59.19;99016.38;5114416;28;20043;-91
2022/04/15 07:18:55;;;;;;;12.88;5.65;;;;;;;13.91;59.71;99019.09;5114883;28;20048;-92
2022/04/15 07:21:21;;;;;;;9.10;5.73;;;;;;;14.26;57.68;99022.25;5115235;28;20040;-92
2022/04/15 07:23:50;;;;;;;7.95;5.47;;;;;;;14.33;57.03;99021.09;5115102;28;20093;-93
2022/04/15 07:26:16;;;;;;;8.30;5.15;;;;;;;14.30;57.65;99014.06;5116115;28;20048;-93
2022/04/15 07:28:42;;;;;;;6.25;5.18;;;;;;;14.54;56.61;99014.91;5116693;28;20081;-92
2022/04/15 07:31:12;;;;;;;9.43;5.35;;;;;;;14.84;57.30;99028.03;5115994;28;20047;-91
2022/04/15 07:33:38;;;;;;;9.38;5.20;;;;;;;14.65;58.01;99011.84;5113973;28;20044;-91
2022/04/15 07:36:31;;;;;;;9.23;5.30;;;;;;;14.86;58.07;99025.31;5114802;28;20127;-92
2022/04/15 07:38:53;;;;;;;10.82;5.95;;;;;;;15.13;57.13;99018.81;5102126;28;20501;-93
2022/04/15 07:41:19;;;;;;;11.38;5.97;;;;;;;15.26;55.35;99008.44;5114213;28;20047;-92
2022/04/15 07:43:45;;;;;;;9.20;5.65;;;;;;;15.46;54.68;99012.97;5115440;28;20087;-92
2022/04/15 07:46:11;;;;;;;8.05;4.95;;;;;;;15.69;54.35;99017.31;5114499;28;20050;-92
2022/04/15 07:48:37;;;;;;;9.60;5.15;;;;;;;15.85;53.41;99006.81;5114049;28;20587;-93
2022/04/15 07:51:03;;;;;;;7.03;4.80;;;;;;;15.95;53.16;98992.03;5114220;28;20035;-94
2022/04/15 07:53:29;;;;;;;12.52;5.75;;;;;;;16.21;53.19;99011.44;5114224;28;20043;-92
2022/04/15 07:55:56;;;;;;;8.93;5.75;;;;;;;16.36;52.53;99010.72;5114402;28;20389;-92
2022/04/15 07:58:22;;;;;;;8.02;5.70;;;;;;;16.42;51.93;98990.81;5098888;28;20044;-93
2022/04/15 08:00:47;;;;;;;8.30;5.43;;;;;;;16.50;51.50;99002.00;5112934;28;20081;-92
2022/04/15 08:03:13;;;;;;;9.93;5.18;;;;;;;16.58;50.85;98986.41;5117074;28;20507;-92
2022/04/15 08:05:39;;;;;;;9.40;5.45;;;;;;;16.52;50.15;98997.44;5118227;28;20066;-92
2022/04/15 08:08:05;;;;;;;7.65;5.45;;;;;;;16.41;50.92;99005.16;5118348;28;20378;-93
2022/04/15 08:10:31;;;;;;;9.00;5.20;;;;;;;16.40;51.51;99000.72;5118215;28;20051;-92
2022/04/15 08:12:58;;;;;;;7.75;5.00;;;;;;;16.45;51.15;98989.78;5118066;28;20059;-93
2022/04/15 08:15:24;;;;;;;8.90;5.32;;;;;;;16.71;50.86;98980.47;5118097;28;20039;-93
2022/04/15 08:17:49;;;;;;;7.13;4.93;;;;;;;17.02;50.31;98987.91;5117480;28;20392;-93
2022/04/15 08:20:15;;;;;;;7.35;5.25;;;;;;;17.24;49.75;98991.28;5117902;28;20049;-92
2022/04/15 08:22:41;;;;;;;9.52;4.95;;;;;;;17.28;49.15;98996.47;5118882;28;20118;-93
2022/04/15 08:25:07;;;;;;;7.72;5.00;;;;;;;17.31;49.79;98989.13;5118094;28;20035;-93
2022/04/15 08:27:33;;;;;;;9.05;5.60;;;;;;;17.53;49.80;98983.50;5117919;28;20040;-92
2022/04/15 08:30:00;;;;;;;9.93;5.30;;;;;;;17.74;49.34;98973.47;5117726;28;20342;-93
2022/04/15 08:32:32;;;;;;;12.77;6.53;;;;;;;17.93;47.67;98959.03;5111823;28;20066;-92
2022/04/15 08:34:58;;;;;;;10.02;5.22;;;;;;;18.22;45.87;98977.16;5117431;28;20485;-92
2022/04/15 08:37:24;;;;;;;8.52;4.60;;;;;;;18.15;44.04;98965.00;5117814;28;20081;-92
2022/04/15 08:39:50;;;;;;;7.15;4.90;;;;;;;18.42;44.77;98973.34;5117246;28;20051;-92
2022/04/15 08:42:19;;;;;;;8.45;5.35;;;;;;;18.42;44.03;98948.25;5116930;28;20031;-92
2022/04/15 08:44:49;;;;;;;6.90;4.60;;;;;;;18.47;42.29;98967.72;5116845;28;20053;-93
2022/04/15 08:47:17;;;;;;;5.50;4.25;;;;;;;18.44;43.51;98963.38;5116823;28;20042;-93
2022/04/15 08:49:43;;;;;;;8.00;4.43;;;;;;;18.66;42.36;98963.03;5117140;28;20127;-94
2022/04/15 08:52:10;;;;;;;7.43;4.30;;;;;;;18.62;41.63;98939.91;5118235;28;20451;-92
2022/04/15 08:54:36;;;;;;;6.45;3.88;;;;;;;18.66;42.25;98960.31;5117565;28;20040;-94
2022/04/15 08:57:02;;;;;;;5.65;3.78;;;;;;;18.66;42.20;98962.16;5117491;28;20451;-93
2022/04/15 08:59:28;;;;;;;6.10;4.20;;;;;;;18.70;41.45;98954.78;5117592;28;20122;-93
2022/04/15 09:01:54;;;;;;;6.03;3.97;;;;;;;18.55;41.82;98932.28;5117702;28;20036;-93
2022/04/15 09:04:21;;;;;;;4.80;3.42;;;;;;;18.58;40.65;98935.66;5117062;28;20059;-92
2022/04/15 09:06:54;;;;;;;6.28;3.60;;;;;;;18.53;40.67;98943.13;5116563;28;20047;-92
2022/04/15 09:09:20;;;;;;;5.65;3.60;;;;;;;18.27;41.34;98923.06;5116777;28;20043;-94
2022/04/15 09:11:49;;;;;;;4.72;3.33;;;;;;;18.35;40.81;98931.59;5117341;28;20114;-93
2022/04/15 09:14:15;;;;;;;6.63;3.67;;;;;;;18.54;40.88;98942.19;5117019;28;20043;-94
2022/04/15 09:16:42;;;;;;;5.60;3.80;;;;;;;18.55;41.61;98938.53;5117485;28;20044;-93
2022/04/15 09:19:09;;;;;;;6.82;4.22;;;;;;;18.65;41.65;98945.13;5118508;28;20055;-92
2022/04/15 09:21:37;;;;;;;7.53;4.25;;;;;;;18.97;41.29;98931.63;5116922;28;20044;-94
2022/04/15 09:24:04;;;;;;;5.37;3.70;;;;;;;19.33;40.49;98933.09;5116935;28;20040;-93
2022/04/15 09:26:30;;;;;;;6.07;3.42;;;;;;;19.53;39.52;98920.25;5117600;28;20276;-95
2022/04/15 09:28:56;;;;;;;6.15;4.03;;;;;;;19.66;39.80;98924.78;5117420;28;20126;-93
2022/04/15 09:31:23;;;;;;;7.63;3.92;;;;;;;19.99;39.45;98923.66;5117661;28;20055;-92
2022/04/15 09:33:54;;;;;;;6.57;3.97;;;;;;;20.23;39.26;98914.94;5117758;28;20048;-93
2022/04/15 09:36:28;;;;;;;8.02;4.30;;;;;;;20.51;38.90;98920.31;5118943;28;20493;-93
2022/04/15 09:39:04;;;;;;;8.25;4.18;;;;;;;20.62;39.51;98910.66;5116609;28;20065;-93
2022/04/15 09:41:31;;;;;;;7.90;4.28;;;;;;;20.74;38.97;98899.03;5116392;28;20083;-94
2022/04/15 09:43:58;;;;;;;9.95;4.63;;;;;;;20.88;39.33;98907.09;5117424;28;20511;-94
2022/04/15 09:46:27;;;;;;;8.38;4.38;;;;;;;20.85;38.97;98904.59;5117026;28;20050;-94
2022/04/15 09:49:07;;;;;;;9.07;4.80;;;;;;;20.92;39.05;98905.03;5116403;28;20043;-91
2022/04/15 09:51:37;;;;;;;8.30;4.10;;;;;;;21.07;38.95;98906.69;5118255;28;20050;-93
2022/04/15 09:54:06;;;;;;;8.27;4.22;;;;;;;20.96;38.25;98900.31;5116364;28;20050;-93
2022/04/15 09:56:37;;;;;;;6.85;4.10;;;;;;;21.03;38.91;98899.78;5116181;28;20043;-93
2022/04/15 09:59:08;;;;;;;7.63;4.30;;;;;;;20.34;40.09;98892.66;5116346;28;20075;-92
2022/04/15 10:01:38;;;;;;;7.85;4.47;;;;;;;20.01;39.76;98902.81;5118692;28;20078;-94
2022/04/15 10:04:05;;;;;;;8.35;4.40;;;;;;;20.14;40.16;98881.31;5120466;28;20027;-94
2022/04/15 10:06:32;;;;;;;8.23;4.35;;;;;;;20.55;40.25;98875.03;5118907;28;20127;-95
2022/04/15 10:09:02;;;;;;;7.43;4.40;;;;;;;20.20;39.50;98894.44;5118170;28;20067;-94
2022/04/15 10:11:32;;;;;;;7.03;4.25;;;;;;;20.55;39.59;98880.44;5117204;28;20486;-93
2022/04/15 10:13:58;;;;;;;6.60;3.90;;;;;;;20.84;37.74;98877.66;5115761;28;20047;-93
2022/04/15 10:16:25;;;;;;;6.93;3.88;;;;;;;20.44;38.27;98896.50;5115497;28;20048;-92
2022/04/15 10:18:51;;;;;;;5.55;4.00;;;;;;;20.60;37.93;98867.56;5116262;28;20039;-92
2022/04/15 10:21:18;;;;;;;10.25;4.35;;;;;;;20.62;38.05;98870.97;5116813;28;20135;-94
2022/04/15 10:23:44;;;;;;;6.88;4.07;;;;;;;20.99;38.45;98870.34;5115470;28;20040;-93
2022/04/15 10:26:10;;;;;;;6.95;4.07;;;;;;;21.28;37.95;98874.63;5117468;28;20497;-93
2022/04/15 10:28:42;;;;;;;8.32;3.70;;;;;;;21.61;37.34;98884.09;5117663;28;20039;-93
2022/04/15 10:31:12;;;;;;;9.82;4.68;;;;;;;21.75;37.57;98874.97;5117744;28;20493;-94
2022/04/15 10:33:39;;;;;;;10.00;4.90;;;;;;;21.65;38.02;98873.91;5117892;28;20450;-92
2022/04/15 10:36:12;;;;;;;6.70;4.10;;;;;;;21.63;38.29;98848.81;5117433;28;20042;-94
2022/04/15 10:39:11;;;;;;;6.78;3.65;;;;;;;21.69;37.34;98860.06;5117539;28;20444;-93
2022/04/15 10:42:01;;;;;;;6.28;3.92;;;;;;;21.65;37.50;98865.81;5112243;28;20070;-94
2022/04/15 10:44:35;;;;;;;6.40;3.80;;;;;;;21.73;37.14;98866.97;5116084;28;20103;-94
2022/04/15 10:47:42;;;;;;;5.82;4.15;;;;;;;21.28;38.09;98871.06;5117014;28;20049;-95
2022/04/15 10:50:09;;;;;;;8.07;4.30;;;;;;;21.28;37.37;98871.06;5111253;28;20046;-93
2022/04/15 10:52:36;;;;;;;9.13;3.90;;;;;;;21.36;38.36;98859.69;5115369;28;20035;-95
2022/04/15 10:55:03;;;;;;;8.25;4.25;;;;;;;21.11;38.13;98846.03;5115393;28;20044;-93
2022/04/15 10:57:35;;;;;;;5.20;3.92;;;;;;;21.37;37.14;98858.72;5115268;28;20039;-92
2022/04/15 11:03:21;;;;;;;6.05;3.75;;;;;;;21.67;36.43;98836.78;5092129;27;20365;-94
2022/04/15 11:05:55;;;;;;;6.43;4.18;;;;;;;21.89;36.03;98855.06;5091707;28;20073;-95
2022/04/15 11:08:23;;;;;;;7.68;3.90;;;;;;;21.76;36.33;98838.81;5092444;28;20142;-94
2022/04/15 11:11:03;;;;;;;8.60;4.37;;;;;;;21.80;36.17;98840.34;5092718;28;20068;-94
2022/04/15 11:13:48;;;;;;;6.30;4.13;;;;;;;21.90;37.10;98830.59;5092060;28;20281;-93
2022/04/15 11:16:14;;;;;;;8.45;4.28;;;;;;;22.04;38.18;98826.00;5092246;28;20040;-93
2022/04/15 11:18:50;;;;;;;7.38;4.20;;;;;;;22.24;37.24;98822.69;5091112;28;20072;-93
2022/04/15 11:21:17;;;;;;;5.68;4.10;;;;;;;22.43;35.72;98826.75;5091173;28;20036;-93
2022/04/15 11:23:47;;;;;;;8.05;3.85;;;;;;;22.55;35.67;98831.25;5091210;28;20040;-95
2022/04/15 11:26:14;;;;;;;7.43;4.40;;;;;;;22.10;35.75;98803.88;5091267;28;20123;-91
2022/04/15 11:28:42;;;;;;;7.88;4.10;;;;;;;21.96;36.19;98804.88;5091685;28;20046;-93
2022/04/15 11:31:18;;;;;;;5.47;3.80;;;;;;;22.25;35.71;98821.75;5091248;28;20040;-93
2022/04/15 11:33:44;;;;;;;8.27;4.30;;;;;;;22.28;34.89;98812.50;5091183;28;20036;-92
2022/04/15 11:36:12;;;;;;;6.40;4.00;;;;;;;21.86;35.52;98803.81;5091436;28;20131;-92
2022/04/15 11:38:38;;;;;;;7.60;4.18;;;;;;;22.09;35.84;98810.25;5091212;28;20478;-95